sensor_id;sensor_type;location;lat;lon;timestamp;P1;durP1;ratioP1;P2;durP2;ratioP2
8407;SDS011;4241;48.452;9.216;2023-09-12T00:00:11;483.50;;;224.47;;
8407;SDS011;4241;48.452;9.216;2023-09-12T00:02:39;483.90;;;222.83;;
8407;SDS011;4241;48.452;9.216;2023-09-12T00:05:06;485.53;;;226.83;;
8407;SDS011;4241;48.452;9.216;2023-09-12T00:07:34;483.50;;;222.80;;
8407;SDS011;4241;48.452;9.216;2023-09-12T00:10:01;484.23;;;224.20;;
8407;SDS011;4241;48.452;9.216;2023-09-12T00:12:28;482.70;;;221.23;;
8407;SDS011;4241;48.452;9.216;2023-09-12T00:14:54;482.93;;;222.27;;
8407;SDS011;4241;48.452;9.216;2023-09-12T00:17:21;483.03;;;220.70;;
8407;SDS011;4241;48.452;9.216;2023-09-12T00:19:49;482.17;;;221.80;;
8407;SDS011;4241;48.452;9.216;2023-09-12T00:22:16;484.23;;;223.90;;
8407;SDS011;4241;48.452;9.216;2023-09-12T00:24:43;482.17;;;219.23;;
8407;SDS011;4241;48.452;9.216;2023-09-12T00:27:10;483.27;;;221.43;;
8407;SDS011;4241;48.452;9.216;2023-09-12T00:29:36;483.67;;;223.83;;
8407;SDS011;4241;48.452;9.216;2023-09-12T00:32:03;482.07;;;218.73;;
8407;SDS011;4241;48.452;9.216;2023-09-12T00:34:31;481.67;;;216.70;;
8407;SDS011;4241;48.452;9.216;2023-09-12T00:36:59;483.17;;;218.17;;
8407;SDS011;4241;48.452;9.216;2023-09-12T00:39:26;482.13;;;217.47;;
8407;SDS011;4241;48.452;9.216;2023-09-12T00:41:53;482.07;;;217.27;;
8407;SDS011;4241;48.452;9.216;2023-09-12T00:44:20;480.60;;;216.33;;
8407;SDS011;4241;48.452;9.216;2023-09-12T00:46:46;483.13;;;221.20;;
8407;SDS011;4241;48.452;9.216;2023-09-12T00:49:15;483.20;;;218.23;;
8407;SDS011;4241;48.452;9.216;2023-09-12T00:51:43;483.20;;;217.97;;
8407;SDS011;4241;48.452;9.216;2023-09-12T00:54:12;482.57;;;220.03;;
8407;SDS011;4241;48.452;9.216;2023-09-12T00:56:39;482.27;;;217.37;;
8407;SDS011;4241;48.452;9.216;2023-09-12T00:59:06;481.17;;;217.60;;
8407;SDS011;4241;48.452;9.216;2023-09-12T01:01:33;484.50;;;222.07;;
8407;SDS011;4241;48.452;9.216;2023-09-12T01:04:00;481.23;;;216.40;;
8407;SDS011;4241;48.452;9.216;2023-09-12T01:06:28;482.10;;;216.37;;
8407;SDS011;4241;48.452;9.216;2023-09-12T01:08:57;480.80;;;217.20;;
8407;SDS011;4241;48.452;9.216;2023-09-12T01:11:26;481.40;;;216.57;;
8407;SDS011;4241;48.452;9.216;2023-09-12T01:13:53;484.13;;;220.67;;
8407;SDS011;4241;48.452;9.216;2023-09-12T01:16:20;481.87;;;216.70;;
8407;SDS011;4241;48.452;9.216;2023-09-12T01:18:46;481.00;;;216.97;;
8407;SDS011;4241;48.452;9.216;2023-09-12T01:21:19;480.77;;;215.97;;
8407;SDS011;4241;48.452;9.216;2023-09-12T01:24:09;480.57;;;215.63;;
8407;SDS011;4241;48.452;9.216;2023-09-12T01:26:59;481.07;;;213.83;;
8407;SDS011;4241;48.452;9.216;2023-09-12T01:29:48;480.07;;;210.40;;
8407;SDS011;4241;48.452;9.216;2023-09-12T01:32:19;481.87;;;216.73;;
8407;SDS011;4241;48.452;9.216;2023-09-12T01:34:46;481.60;;;216.60;;
8407;SDS011;4241;48.452;9.216;2023-09-12T01:37:13;481.60;;;217.30;;
8407;SDS011;4241;48.452;9.216;2023-09-12T01:39:40;480.10;;;212.70;;
8407;SDS011;4241;48.452;9.216;2023-09-12T01:42:08;480.73;;;215.80;;
8407;SDS011;4241;48.452;9.216;2023-09-12T01:44:39;481.37;;;215.57;;
8407;SDS011;4241;48.452;9.216;2023-09-12T01:47:10;481.73;;;215.83;;
8407;SDS011;4241;48.452;9.216;2023-09-12T01:49:39;481.43;;;214.60;;
8407;SDS011;4241;48.452;9.216;2023-09-12T01:52:08;481.13;;;215.50;;
8407;SDS011;4241;48.452;9.216;2023-09-12T01:54:36;480.67;;;214.10;;
8407;SDS011;4241;48.452;9.216;2023-09-12T01:57:04;480.53;;;216.00;;
8407;SDS011;4241;48.452;9.216;2023-09-12T01:59:31;492.47;;;227.17;;
8407;SDS011;4241;48.452;9.216;2023-09-12T02:01:58;481.73;;;218.67;;
8407;SDS011;4241;48.452;9.216;2023-09-12T02:04:26;479.43;;;212.77;;
8407;SDS011;4241;48.452;9.216;2023-09-12T02:06:53;478.37;;;211.07;;
8407;SDS011;4241;48.452;9.216;2023-09-12T02:09:20;481.27;;;216.00;;
8407;SDS011;4241;48.452;9.216;2023-09-12T02:11:48;480.47;;;211.90;;
8407;SDS011;4241;48.452;9.216;2023-09-12T02:14:15;478.63;;;209.17;;
8407;SDS011;4241;48.452;9.216;2023-09-12T02:16:43;480.13;;;213.37;;
8407;SDS011;4241;48.452;9.216;2023-09-12T02:19:10;479.97;;;209.90;;
8407;SDS011;4241;48.452;9.216;2023-09-12T02:21:38;479.77;;;211.23;;
8407;SDS011;4241;48.452;9.216;2023-09-12T02:24:05;479.33;;;210.77;;
8407;SDS011;4241;48.452;9.216;2023-09-12T02:26:32;481.80;;;212.87;;
8407;SDS011;4241;48.452;9.216;2023-09-12T02:29:01;478.27;;;209.70;;
8407;SDS011;4241;48.452;9.216;2023-09-12T02:31:28;479.73;;;211.47;;
8407;SDS011;4241;48.452;9.216;2023-09-12T02:33:55;481.23;;;212.83;;
8407;SDS011;4241;48.452;9.216;2023-09-12T02:36:22;478.17;;;208.67;;
8407;SDS011;4241;48.452;9.216;2023-09-12T02:38:51;478.47;;;205.57;;
8407;SDS011;4241;48.452;9.216;2023-09-12T02:41:17;479.87;;;212.60;;
8407;SDS011;4241;48.452;9.216;2023-09-12T02:43:44;479.83;;;209.93;;
8407;SDS011;4241;48.452;9.216;2023-09-12T02:46:11;479.53;;;210.13;;
8407;SDS011;4241;48.452;9.216;2023-09-12T02:48:38;479.33;;;210.07;;
8407;SDS011;4241;48.452;9.216;2023-09-12T02:51:05;479.57;;;211.87;;
8407;SDS011;4241;48.452;9.216;2023-09-12T02:53:31;479.40;;;210.83;;
8407;SDS011;4241;48.452;9.216;2023-09-12T02:55:59;479.53;;;209.63;;
8407;SDS011;4241;48.452;9.216;2023-09-12T02:58:27;482.43;;;216.53;;
8407;SDS011;4241;48.452;9.216;2023-09-12T03:00:54;478.53;;;208.30;;
8407;SDS011;4241;48.452;9.216;2023-09-12T03:03:20;477.70;;;208.50;;
8407;SDS011;4241;48.452;9.216;2023-09-12T03:05:47;481.03;;;212.77;;
8407;SDS011;4241;48.452;9.216;2023-09-12T03:08:14;480.63;;;212.47;;
8407;SDS011;4241;48.452;9.216;2023-09-12T03:10:41;481.17;;;213.70;;
8407;SDS011;4241;48.452;9.216;2023-09-12T03:13:09;480.77;;;214.50;;
8407;SDS011;4241;48.452;9.216;2023-09-12T03:15:38;478.80;;;208.63;;
8407;SDS011;4241;48.452;9.216;2023-09-12T03:18:07;480.63;;;213.33;;
8407;SDS011;4241;48.452;9.216;2023-09-12T03:20:37;478.87;;;209.87;;
8407;SDS011;4241;48.452;9.216;2023-09-12T03:23:04;479.10;;;210.17;;
8407;SDS011;4241;48.452;9.216;2023-09-12T03:25:34;484.13;;;218.80;;
8407;SDS011;4241;48.452;9.216;2023-09-12T03:28:03;482.07;;;213.43;;
8407;SDS011;4241;48.452;9.216;2023-09-12T03:30:32;481.63;;;210.40;;
8407;SDS011;4241;48.452;9.216;2023-09-12T03:32:59;481.50;;;211.23;;
8407;SDS011;4241;48.452;9.216;2023-09-12T03:35:26;485.37;;;213.30;;
8407;SDS011;4241;48.452;9.216;2023-09-12T03:37:54;477.77;;;207.70;;
8407;SDS011;4241;48.452;9.216;2023-09-12T03:40:21;480.10;;;211.03;;
8407;SDS011;4241;48.452;9.216;2023-09-12T03:42:48;480.23;;;210.70;;
8407;SDS011;4241;48.452;9.216;2023-09-12T03:45:15;482.47;;;215.40;;
8407;SDS011;4241;48.452;9.216;2023-09-12T03:47:43;479.50;;;213.53;;
8407;SDS011;4241;48.452;9.216;2023-09-12T03:50:12;478.30;;;210.43;;
8407;SDS011;4241;48.452;9.216;2023-09-12T03:52:39;478.87;;;210.37;;
8407;SDS011;4241;48.452;9.216;2023-09-12T03:55:06;479.57;;;207.60;;
8407;SDS011;4241;48.452;9.216;2023-09-12T03:57:33;478.70;;;210.33;;
8407;SDS011;4241;48.452;9.216;2023-09-12T04:00:00;481.23;;;212.47;;
8407;SDS011;4241;48.452;9.216;2023-09-12T04:02:29;480.20;;;210.33;;
8407;SDS011;4241;48.452;9.216;2023-09-12T04:04:57;478.63;;;208.93;;
8407;SDS011;4241;48.452;9.216;2023-09-12T04:07:24;480.20;;;209.40;;
8407;SDS011;4241;48.452;9.216;2023-09-12T04:09:51;484.67;;;217.50;;
8407;SDS011;4241;48.452;9.216;2023-09-12T04:12:18;480.20;;;211.53;;
8407;SDS011;4241;48.452;9.216;2023-09-12T04:14:45;480.67;;;213.93;;
8407;SDS011;4241;48.452;9.216;2023-09-12T04:17:12;479.30;;;210.77;;
8407;SDS011;4241;48.452;9.216;2023-09-12T04:19:38;481.37;;;212.63;;
8407;SDS011;4241;48.452;9.216;2023-09-12T04:22:06;480.20;;;213.47;;
8407;SDS011;4241;48.452;9.216;2023-09-12T04:24:33;481.40;;;213.93;;
8407;SDS011;4241;48.452;9.216;2023-09-12T04:27:00;479.60;;;207.60;;
8407;SDS011;4241;48.452;9.216;2023-09-12T04:29:28;478.43;;;207.40;;
8407;SDS011;4241;48.452;9.216;2023-09-12T04:31:55;480.97;;;210.17;;
8407;SDS011;4241;48.452;9.216;2023-09-12T04:34:24;478.73;;;207.67;;
8407;SDS011;4241;48.452;9.216;2023-09-12T04:36:51;480.67;;;210.27;;
8407;SDS011;4241;48.452;9.216;2023-09-12T04:39:20;478.30;;;207.87;;
8407;SDS011;4241;48.452;9.216;2023-09-12T04:41:46;478.07;;;206.23;;
8407;SDS011;4241;48.452;9.216;2023-09-12T04:44:13;478.27;;;206.93;;
8407;SDS011;4241;48.452;9.216;2023-09-12T04:46:40;478.40;;;207.80;;
8407;SDS011;4241;48.452;9.216;2023-09-12T04:49:07;478.47;;;207.50;;
8407;SDS011;4241;48.452;9.216;2023-09-12T04:51:34;480.47;;;210.33;;
8407;SDS011;4241;48.452;9.216;2023-09-12T04:54:00;480.67;;;213.90;;
8407;SDS011;4241;48.452;9.216;2023-09-12T04:56:29;479.17;;;210.20;;
8407;SDS011;4241;48.452;9.216;2023-09-12T04:58:55;481.37;;;213.13;;
8407;SDS011;4241;48.452;9.216;2023-09-12T05:01:22;480.43;;;210.80;;
8407;SDS011;4241;48.452;9.216;2023-09-12T05:03:50;481.23;;;213.53;;
8407;SDS011;4241;48.452;9.216;2023-09-12T05:06:17;478.30;;;209.00;;
8407;SDS011;4241;48.452;9.216;2023-09-12T05:08:44;481.33;;;210.70;;
8407;SDS011;4241;48.452;9.216;2023-09-12T05:11:11;479.10;;;208.20;;
8407;SDS011;4241;48.452;9.216;2023-09-12T05:13:39;476.57;;;205.97;;
8407;SDS011;4241;48.452;9.216;2023-09-12T05:16:06;480.17;;;210.97;;
8407;SDS011;4241;48.452;9.216;2023-09-12T05:18:32;479.13;;;209.17;;
8407;SDS011;4241;48.452;9.216;2023-09-12T05:20:59;478.50;;;207.83;;
8407;SDS011;4241;48.452;9.216;2023-09-12T05:23:26;479.57;;;209.73;;
8407;SDS011;4241;48.452;9.216;2023-09-12T05:25:59;478.70;;;208.87;;
8407;SDS011;4241;48.452;9.216;2023-09-12T05:28:26;479.23;;;211.13;;
8407;SDS011;4241;48.452;9.216;2023-09-12T05:30:54;479.50;;;209.70;;
8407;SDS011;4241;48.452;9.216;2023-09-12T05:33:21;479.23;;;209.23;;
8407;SDS011;4241;48.452;9.216;2023-09-12T05:35:48;479.73;;;212.30;;
8407;SDS011;4241;48.452;9.216;2023-09-12T05:38:14;479.50;;;211.03;;
8407;SDS011;4241;48.452;9.216;2023-09-12T05:40:41;484.23;;;217.47;;
8407;SDS011;4241;48.452;9.216;2023-09-12T05:43:08;480.97;;;212.83;;
8407;SDS011;4241;48.452;9.216;2023-09-12T05:45:35;483.63;;;217.40;;
8407;SDS011;4241;48.452;9.216;2023-09-12T05:48:03;482.03;;;215.50;;
8407;SDS011;4241;48.452;9.216;2023-09-12T05:50:30;482.53;;;218.00;;
8407;SDS011;4241;48.452;9.216;2023-09-12T05:52:57;481.60;;;220.47;;
8407;SDS011;4241;48.452;9.216;2023-09-12T05:55:24;485.50;;;223.73;;
8407;SDS011;4241;48.452;9.216;2023-09-12T05:57:51;481.67;;;219.27;;
8407;SDS011;4241;48.452;9.216;2023-09-12T06:00:18;482.60;;;220.57;;
8407;SDS011;4241;48.452;9.216;2023-09-12T06:02:45;482.17;;;221.97;;
8407;SDS011;4241;48.452;9.216;2023-09-12T06:05:14;483.97;;;225.67;;
8407;SDS011;4241;48.452;9.216;2023-09-12T06:07:41;484.13;;;226.83;;
8407;SDS011;4241;48.452;9.216;2023-09-12T06:10:08;487.73;;;232.73;;
8407;SDS011;4241;48.452;9.216;2023-09-12T06:12:35;487.73;;;232.90;;
8407;SDS011;4241;48.452;9.216;2023-09-12T06:15:02;486.97;;;234.23;;
8407;SDS011;4241;48.452;9.216;2023-09-12T06:17:29;486.90;;;235.10;;
8407;SDS011;4241;48.452;9.216;2023-09-12T06:19:56;486.83;;;235.77;;
8407;SDS011;4241;48.452;9.216;2023-09-12T06:22:24;488.30;;;240.27;;
8407;SDS011;4241;48.452;9.216;2023-09-12T06:24:51;489.60;;;243.07;;
8407;SDS011;4241;48.452;9.216;2023-09-12T06:27:18;488.80;;;242.10;;
8407;SDS011;4241;48.452;9.216;2023-09-12T06:29:45;489.90;;;243.97;;
8407;SDS011;4241;48.452;9.216;2023-09-12T06:32:13;488.50;;;241.23;;
8407;SDS011;4241;48.452;9.216;2023-09-12T06:34:40;489.07;;;241.47;;
8407;SDS011;4241;48.452;9.216;2023-09-12T06:37:06;491.17;;;247.53;;
8407;SDS011;4241;48.452;9.216;2023-09-12T06:39:35;490.73;;;248.17;;
8407;SDS011;4241;48.452;9.216;2023-09-12T06:42:01;490.30;;;248.93;;
8407;SDS011;4241;48.452;9.216;2023-09-12T06:44:28;491.40;;;251.67;;
8407;SDS011;4241;48.452;9.216;2023-09-12T06:46:55;491.13;;;253.47;;
8407;SDS011;4241;48.452;9.216;2023-09-12T06:49:22;492.57;;;255.03;;
8407;SDS011;4241;48.452;9.216;2023-09-12T06:51:49;490.43;;;251.83;;
8407;SDS011;4241;48.452;9.216;2023-09-12T06:54:15;493.07;;;254.70;;
8407;SDS011;4241;48.452;9.216;2023-09-12T06:56:44;491.60;;;253.37;;
8407;SDS011;4241;48.452;9.216;2023-09-12T06:59:11;493.83;;;256.67;;
8407;SDS011;4241;48.452;9.216;2023-09-12T07:01:37;492.90;;;257.70;;
8407;SDS011;4241;48.452;9.216;2023-09-12T07:04:04;491.97;;;254.60;;
8407;SDS011;4241;48.452;9.216;2023-09-12T07:06:31;492.47;;;255.60;;
8407;SDS011;4241;48.452;9.216;2023-09-12T07:08:58;492.10;;;254.97;;
8407;SDS011;4241;48.452;9.216;2023-09-12T07:11:25;492.50;;;259.07;;
8407;SDS011;4241;48.452;9.216;2023-09-12T07:13:53;492.10;;;260.70;;
8407;SDS011;4241;48.452;9.216;2023-09-12T07:16:20;492.70;;;264.23;;
8407;SDS011;4241;48.452;9.216;2023-09-12T07:18:47;493.67;;;262.77;;
8407;SDS011;4241;48.452;9.216;2023-09-12T07:21:15;493.67;;;262.70;;
8407;SDS011;4241;48.452;9.216;2023-09-12T07:23:42;493.67;;;262.87;;
8407;SDS011;4241;48.452;9.216;2023-09-12T07:26:11;492.70;;;262.40;;
8407;SDS011;4241;48.452;9.216;2023-09-12T07:28:38;493.70;;;261.17;;
8407;SDS011;4241;48.452;9.216;2023-09-12T07:31:07;492.37;;;260.63;;
8407;SDS011;4241;48.452;9.216;2023-09-12T07:33:33;492.00;;;260.30;;
8407;SDS011;4241;48.452;9.216;2023-09-12T07:36:00;492.83;;;261.53;;
8407;SDS011;4241;48.452;9.216;2023-09-12T07:38:27;491.33;;;260.07;;
8407;SDS011;4241;48.452;9.216;2023-09-12T07:40:55;493.43;;;264.07;;
8407;SDS011;4241;48.452;9.216;2023-09-12T07:43:23;493.53;;;267.20;;
8407;SDS011;4241;48.452;9.216;2023-09-12T07:45:54;495.40;;;268.57;;
8407;SDS011;4241;48.452;9.216;2023-09-12T07:48:22;495.37;;;270.43;;
8407;SDS011;4241;48.452;9.216;2023-09-12T07:50:49;496.07;;;272.40;;
8407;SDS011;4241;48.452;9.216;2023-09-12T07:53:16;496.90;;;275.90;;
8407;SDS011;4241;48.452;9.216;2023-09-12T07:55:43;499.57;;;283.30;;
8407;SDS011;4241;48.452;9.216;2023-09-12T08:01:33;498.37;;;283.00;;
8407;SDS011;4241;48.452;9.216;2023-09-12T08:07:23;497.90;;;283.60;;
8407;SDS011;4241;48.452;9.216;2023-09-12T08:09:50;500.30;;;290.43;;
8407;SDS011;4241;48.452;9.216;2023-09-12T08:12:18;499.00;;;289.13;;
8407;SDS011;4241;48.452;9.216;2023-09-12T08:14:45;497.50;;;288.30;;
8407;SDS011;4241;48.452;9.216;2023-09-12T08:17:12;499.07;;;288.10;;
8407;SDS011;4241;48.452;9.216;2023-09-12T08:19:40;499.13;;;287.47;;
8407;SDS011;4241;48.452;9.216;2023-09-12T08:22:07;500.67;;;295.47;;
8407;SDS011;4241;48.452;9.216;2023-09-12T08:24:39;501.50;;;297.20;;
8407;SDS011;4241;48.452;9.216;2023-09-12T08:27:06;501.17;;;298.57;;
8407;SDS011;4241;48.452;9.216;2023-09-12T08:29:34;499.17;;;296.83;;
8407;SDS011;4241;48.452;9.216;2023-09-12T08:32:01;502.63;;;303.93;;
8407;SDS011;4241;48.452;9.216;2023-09-12T08:34:28;503.27;;;309.07;;
8407;SDS011;4241;48.452;9.216;2023-09-12T08:36:55;503.50;;;311.70;;
8407;SDS011;4241;48.452;9.216;2023-09-12T08:39:23;504.33;;;315.20;;
8407;SDS011;4241;48.452;9.216;2023-09-12T08:41:52;504.87;;;317.33;;
8407;SDS011;4241;48.452;9.216;2023-09-12T08:44:19;505.57;;;322.57;;
8407;SDS011;4241;48.452;9.216;2023-09-12T08:46:47;505.53;;;324.40;;
8407;SDS011;4241;48.452;9.216;2023-09-12T08:49:14;507.90;;;331.70;;
8407;SDS011;4241;48.452;9.216;2023-09-12T08:51:42;507.30;;;332.97;;
8407;SDS011;4241;48.452;9.216;2023-09-12T08:54:09;506.40;;;335.70;;
8407;SDS011;4241;48.452;9.216;2023-09-12T08:56:36;509.50;;;338.23;;
8407;SDS011;4241;48.452;9.216;2023-09-12T08:59:07;509.77;;;340.33;;
8407;SDS011;4241;48.452;9.216;2023-09-12T09:01:36;509.27;;;343.33;;
8407;SDS011;4241;48.452;9.216;2023-09-12T09:04:03;510.03;;;347.03;;
8407;SDS011;4241;48.452;9.216;2023-09-12T09:06:31;509.17;;;346.03;;
8407;SDS011;4241;48.452;9.216;2023-09-12T09:09:02;508.87;;;346.60;;
8407;SDS011;4241;48.452;9.216;2023-09-12T09:11:31;509.10;;;345.93;;
8407;SDS011;4241;48.452;9.216;2023-09-12T09:13:57;509.70;;;351.90;;
8407;SDS011;4241;48.452;9.216;2023-09-12T09:16:25;510.10;;;356.33;;
8407;SDS011;4241;48.452;9.216;2023-09-12T09:18:53;512.00;;;363.80;;
8407;SDS011;4241;48.452;9.216;2023-09-12T09:21:21;512.27;;;364.07;;
8407;SDS011;4241;48.452;9.216;2023-09-12T09:23:50;513.90;;;367.03;;
8407;SDS011;4241;48.452;9.216;2023-09-12T09:26:18;512.30;;;369.48;;
8407;SDS011;4241;48.452;9.216;2023-09-12T09:28:45;513.87;;;371.37;;
8407;SDS011;4241;48.452;9.216;2023-09-12T09:31:12;511.45;;;368.75;;
8407;SDS011;4241;48.452;9.216;2023-09-12T09:33:41;513.08;;;373.15;;
8407;SDS011;4241;48.452;9.216;2023-09-12T09:36:13;512.72;;;373.27;;
8407;SDS011;4241;48.452;9.216;2023-09-12T09:38:41;513.22;;;376.67;;
8407;SDS011;4241;48.452;9.216;2023-09-12T09:41:08;512.47;;;377.77;;
8407;SDS011;4241;48.452;9.216;2023-09-12T09:43:35;514.63;;;383.35;;
8407;SDS011;4241;48.452;9.216;2023-09-12T09:46:02;514.40;;;385.95;;
8407;SDS011;4241;48.452;9.216;2023-09-12T09:48:29;514.28;;;386.45;;
8407;SDS011;4241;48.452;9.216;2023-09-12T09:51:01;513.97;;;386.50;;
8407;SDS011;4241;48.452;9.216;2023-09-12T09:53:29;514.90;;;390.77;;
8407;SDS011;4241;48.452;9.216;2023-09-12T09:56:07;516.90;;;393.45;;
8407;SDS011;4241;48.452;9.216;2023-09-12T09:58:35;516.03;;;393.17;;
8407;SDS011;4241;48.452;9.216;2023-09-12T10:01:02;514.85;;;393.65;;
8407;SDS011;4241;48.452;9.216;2023-09-12T10:03:33;516.97;;;398.55;;
8407;SDS011;4241;48.452;9.216;2023-09-12T10:06:03;516.55;;;392.75;;
8407;SDS011;4241;48.452;9.216;2023-09-12T10:08:31;514.88;;;388.60;;
8407;SDS011;4241;48.452;9.216;2023-09-12T10:11:00;513.38;;;389.75;;
8407;SDS011;4241;48.452;9.216;2023-09-12T10:13:28;514.28;;;387.63;;
8407;SDS011;4241;48.452;9.216;2023-09-12T10:15:58;517.05;;;396.25;;
8407;SDS011;4241;48.452;9.216;2023-09-12T10:18:26;515.65;;;393.77;;
8407;SDS011;4241;48.452;9.216;2023-09-12T10:20:58;513.35;;;391.13;;
8407;SDS011;4241;48.452;9.216;2023-09-12T10:23:34;515.60;;;392.92;;
8407;SDS011;4241;48.452;9.216;2023-09-12T10:26:07;517.00;;;398.40;;
8407;SDS011;4241;48.452;9.216;2023-09-12T10:28:36;515.80;;;397.27;;
8407;SDS011;4241;48.452;9.216;2023-09-12T10:31:05;516.00;;;398.83;;
8407;SDS011;4241;48.452;9.216;2023-09-12T10:33:34;517.10;;;406.60;;
8407;SDS011;4241;48.452;9.216;2023-09-12T10:36:01;516.40;;;401.10;;
8407;SDS011;4241;48.452;9.216;2023-09-12T10:38:31;516.72;;;404.45;;
8407;SDS011;4241;48.452;9.216;2023-09-12T10:40:59;517.90;;;404.17;;
8407;SDS011;4241;48.452;9.216;2023-09-12T10:43:28;517.35;;;410.52;;
8407;SDS011;4241;48.452;9.216;2023-09-12T10:45:58;517.10;;;407.17;;
8407;SDS011;4241;48.452;9.216;2023-09-12T10:48:29;516.55;;;410.40;;
8407;SDS011;4241;48.452;9.216;2023-09-12T10:50:57;517.95;;;411.52;;
8407;SDS011;4241;48.452;9.216;2023-09-12T10:53:28;518.47;;;412.35;;
8407;SDS011;4241;48.452;9.216;2023-09-12T10:55:59;517.72;;;412.70;;
8407;SDS011;4241;48.452;9.216;2023-09-12T10:58:26;518.97;;;416.65;;
8407;SDS011;4241;48.452;9.216;2023-09-12T11:03:49;516.88;;;413.58;;
8407;SDS011;4241;48.452;9.216;2023-09-12T11:06:22;517.95;;;415.27;;
8407;SDS011;4241;48.452;9.216;2023-09-12T11:11:47;518.85;;;418.25;;
8407;SDS011;4241;48.452;9.216;2023-09-12T11:14:15;517.85;;;417.77;;
8407;SDS011;4241;48.452;9.216;2023-09-12T11:16:42;518.85;;;416.88;;
8407;SDS011;4241;48.452;9.216;2023-09-12T11:19:29;519.05;;;420.17;;
8407;SDS011;4241;48.452;9.216;2023-09-12T11:22:20;518.05;;;415.50;;
8407;SDS011;4241;48.452;9.216;2023-09-12T11:24:50;519.90;;;422.10;;
8407;SDS011;4241;48.452;9.216;2023-09-12T11:27:16;521.22;;;425.48;;
8407;SDS011;4241;48.452;9.216;2023-09-12T11:29:44;519.20;;;423.90;;
8407;SDS011;4241;48.452;9.216;2023-09-12T11:32:11;520.80;;;429.13;;
8407;SDS011;4241;48.452;9.216;2023-09-12T11:34:51;521.47;;;428.63;;
8407;SDS011;4241;48.452;9.216;2023-09-12T11:37:22;519.92;;;427.00;;
8407;SDS011;4241;48.452;9.216;2023-09-12T11:39:52;521.88;;;431.63;;
8407;SDS011;4241;48.452;9.216;2023-09-12T11:42:19;520.13;;;429.50;;
8407;SDS011;4241;48.452;9.216;2023-09-12T11:44:48;521.10;;;430.42;;
8407;SDS011;4241;48.452;9.216;2023-09-12T11:47:16;521.22;;;429.95;;
8407;SDS011;4241;48.452;9.216;2023-09-12T11:49:43;520.08;;;429.52;;
8407;SDS011;4241;48.452;9.216;2023-09-12T11:52:10;522.13;;;432.70;;
8407;SDS011;4241;48.452;9.216;2023-09-12T11:54:38;521.45;;;436.20;;
8407;SDS011;4241;48.452;9.216;2023-09-12T11:57:08;519.25;;;427.70;;
8407;SDS011;4241;48.452;9.216;2023-09-12T11:59:39;531.28;;;437.15;;
8407;SDS011;4241;48.452;9.216;2023-09-12T12:02:06;517.80;;;419.95;;
8407;SDS011;4241;48.452;9.216;2023-09-12T12:04:34;519.10;;;421.33;;
8407;SDS011;4241;48.452;9.216;2023-09-12T12:07:01;517.33;;;419.95;;
8407;SDS011;4241;48.452;9.216;2023-09-12T12:09:29;519.10;;;423.58;;
8407;SDS011;4241;48.452;9.216;2023-09-12T12:11:56;518.00;;;418.65;;
8407;SDS011;4241;48.452;9.216;2023-09-12T12:14:27;517.60;;;419.67;;
8407;SDS011;4241;48.452;9.216;2023-09-12T12:16:54;518.63;;;419.10;;
8407;SDS011;4241;48.452;9.216;2023-09-12T12:19:21;519.22;;;424.73;;
8407;SDS011;4241;48.452;9.216;2023-09-12T12:21:48;517.95;;;419.63;;
8407;SDS011;4241;48.452;9.216;2023-09-12T12:24:15;519.25;;;423.92;;
8407;SDS011;4241;48.452;9.216;2023-09-12T12:26:42;520.13;;;423.92;;
8407;SDS011;4241;48.452;9.216;2023-09-12T12:29:09;519.92;;;424.17;;
8407;SDS011;4241;48.452;9.216;2023-09-12T12:31:38;517.33;;;418.63;;
8407;SDS011;4241;48.452;9.216;2023-09-12T12:34:05;520.97;;;428.52;;
8407;SDS011;4241;48.452;9.216;2023-09-12T12:36:32;519.15;;;423.55;;
8407;SDS011;4241;48.452;9.216;2023-09-12T12:39:06;521.30;;;430.48;;
8407;SDS011;4241;48.452;9.216;2023-09-12T12:41:36;518.80;;;426.10;;
8407;SDS011;4241;48.452;9.216;2023-09-12T12:44:03;519.83;;;424.85;;
8407;SDS011;4241;48.452;9.216;2023-09-12T12:46:31;518.28;;;424.00;;
8407;SDS011;4241;48.452;9.216;2023-09-12T12:49:00;520.92;;;425.58;;
8407;SDS011;4241;48.452;9.216;2023-09-12T12:51:28;520.17;;;426.15;;
8407;SDS011;4241;48.452;9.216;2023-09-12T12:54:02;520.45;;;424.38;;
8407;SDS011;4241;48.452;9.216;2023-09-12T12:56:30;518.58;;;419.77;;
8407;SDS011;4241;48.452;9.216;2023-09-12T12:58:58;519.25;;;420.33;;
8407;SDS011;4241;48.452;9.216;2023-09-12T13:01:27;519.35;;;424.15;;
8407;SDS011;4241;48.452;9.216;2023-09-12T13:03:55;521.33;;;424.63;;
8407;SDS011;4241;48.452;9.216;2023-09-12T13:06:23;520.00;;;423.45;;
8407;SDS011;4241;48.452;9.216;2023-09-12T13:08:52;518.90;;;419.25;;
8407;SDS011;4241;48.452;9.216;2023-09-12T13:11:19;519.15;;;419.50;;
8407;SDS011;4241;48.452;9.216;2023-09-12T13:13:46;520.20;;;417.90;;
8407;SDS011;4241;48.452;9.216;2023-09-12T13:16:14;520.42;;;420.10;;
8407;SDS011;4241;48.452;9.216;2023-09-12T13:18:42;516.67;;;415.23;;
8407;SDS011;4241;48.452;9.216;2023-09-12T13:21:08;518.03;;;416.40;;
8407;SDS011;4241;48.452;9.216;2023-09-12T13:23:37;518.10;;;414.55;;
8407;SDS011;4241;48.452;9.216;2023-09-12T13:26:05;519.88;;;416.70;;
8407;SDS011;4241;48.452;9.216;2023-09-12T13:28:33;518.80;;;419.48;;
8407;SDS011;4241;48.452;9.216;2023-09-12T13:31:00;517.85;;;414.02;;
8407;SDS011;4241;48.452;9.216;2023-09-12T13:33:26;517.72;;;413.08;;
8407;SDS011;4241;48.452;9.216;2023-09-12T13:35:53;521.35;;;419.38;;
8407;SDS011;4241;48.452;9.216;2023-09-12T13:38:20;518.40;;;415.40;;
8407;SDS011;4241;48.452;9.216;2023-09-12T13:40:49;517.80;;;412.67;;
8407;SDS011;4241;48.452;9.216;2023-09-12T13:43:16;517.50;;;409.67;;
8407;SDS011;4241;48.452;9.216;2023-09-12T13:45:43;523.47;;;416.85;;
8407;SDS011;4241;48.452;9.216;2023-09-12T13:48:10;519.28;;;411.95;;
8407;SDS011;4241;48.452;9.216;2023-09-12T13:50:37;517.22;;;410.75;;
8407;SDS011;4241;48.452;9.216;2023-09-12T13:53:04;516.67;;;406.67;;
8407;SDS011;4241;48.452;9.216;2023-09-12T13:55:32;521.03;;;414.27;;
8407;SDS011;4241;48.452;9.216;2023-09-12T13:58:01;517.97;;;409.17;;
8407;SDS011;4241;48.452;9.216;2023-09-12T14:00:29;515.97;;;403.52;;
8407;SDS011;4241;48.452;9.216;2023-09-12T14:02:56;517.80;;;406.00;;
8407;SDS011;4241;48.452;9.216;2023-09-12T14:05:23;516.35;;;403.52;;
8407;SDS011;4241;48.452;9.216;2023-09-12T14:07:50;518.60;;;403.60;;
8407;SDS011;4241;48.452;9.216;2023-09-12T14:10:17;517.03;;;404.20;;
8407;SDS011;4241;48.452;9.216;2023-09-12T14:12:44;516.33;;;400.80;;
8407;SDS011;4241;48.452;9.216;2023-09-12T14:15:12;515.33;;;394.83;;
8407;SDS011;4241;48.452;9.216;2023-09-12T14:17:40;513.95;;;391.30;;
8407;SDS011;4241;48.452;9.216;2023-09-12T14:20:07;515.08;;;391.80;;
8407;SDS011;4241;48.452;9.216;2023-09-12T14:22:35;514.58;;;390.63;;
8407;SDS011;4241;48.452;9.216;2023-09-12T14:25:03;514.80;;;392.10;;
8407;SDS011;4241;48.452;9.216;2023-09-12T14:27:30;514.78;;;391.25;;
8407;SDS011;4241;48.452;9.216;2023-09-12T14:29:57;514.05;;;387.45;;
8407;SDS011;4241;48.452;9.216;2023-09-12T14:32:26;513.75;;;382.90;;
8407;SDS011;4241;48.452;9.216;2023-09-12T14:34:53;513.70;;;381.05;;
8407;SDS011;4241;48.452;9.216;2023-09-12T14:37:19;514.60;;;386.90;;